Time;durP1;ratioP1;P1;durP2;ratioP2;P2;SDS_P1;SDS_P2;PMS_P1;PMS_P2;Temp;Humidity;BMP_temperature;BMP_pressure;BME280_temperature;BME280_humidity;BME280_pressure;Samples;Min_cycle;Max_cycle;Signal;HPM_P1;HPM_P2
2024/01/07 00:00:20;;;;;;;16.10;11.00;;;7.60;99.90;;;;;;5017903;28;20185;-68
2024/01/07 00:02:46;;;;;;;14.27;9.80;;;7.50;99.90;;;;;;5017464;28;20177;-68
2024/01/07 00:05:12;;;;;;;17.87;10.57;;;7.50;99.90;;;;;;5012596;28;20177;-68
2024/01/07 00:07:37;;;;;;;20.00;12.20;;;7.50;99.90;;;;;;5016097;28;20201;-68
2024/01/07 00:10:03;;;;;;;17.63;11.57;;;7.50;99.90;;;;;;5014216;28;22781;-69
2024/01/07 00:12:29;;;;;;;17.87;10.10;;;7.50;99.90;;;;;;5015817;28;20176;-69
2024/01/07 00:14:54;;;;;;;14.23;9.23;;;7.50;99.90;;;;;;5013623;28;20227;-69
2024/01/07 00:17:20;;;;;;;12.03;8.43;;;7.50;99.90;;;;;;5020271;28;20315;-69
2024/01/07 00:19:46;;;;;;;16.33;11.10;;;7.60;99.90;;;;;;5015135;28;20176;-69
2024/01/07 00:22:11;;;;;;;14.73;9.53;;;7.60;99.90;;;;;;5012875;28;20177;-69
2024/01/07 00:24:37;;;;;;;12.90;9.30;;;7.50;99.90;;;;;;5011887;28;20200;-68
2024/01/07 00:27:03;;;;;;;15.00;10.60;;;7.50;99.90;;;;;;5012866;28;20215;-69
2024/01/07 00:29:28;;;;;;;13.77;9.37;;;7.50;99.90;;;;;;5011337;28;20192;-69
2024/01/07 00:31:54;;;;;;;14.20;9.27;;;7.40;99.90;;;;;;5015121;28;20446;-68
2024/01/07 00:34:19;;;;;;;15.07;9.33;;;7.40;99.90;;;;;;5018121;28;20204;-69
2024/01/07 00:36:45;;;;;;;14.13;9.80;;;7.40;99.90;;;;;;5019181;28;20294;-69
2024/01/07 00:39:11;;;;;;;15.80;10.33;;;7.50;99.90;;;;;;5016828;28;20181;-69
2024/01/07 00:41:37;;;;;;;15.70;11.47;;;7.40;99.90;;;;;;5009771;28;20177;-70
2024/01/07 00:44:02;;;;;;;13.90;9.83;;;7.50;99.90;;;;;;5013261;28;20450;-70
2024/01/07 00:46:28;;;;;;;16.53;11.90;;;7.40;99.90;;;;;;5015607;28;20177;-69
2024/01/07 00:48:53;;;;;;;16.43;12.13;;;7.50;99.90;;;;;;5015605;28;20207;-69
2024/01/07 00:51:19;;;;;;;17.90;12.47;;;7.50;99.90;;;;;;5015020;28;20184;-69
2024/01/07 00:53:44;;;;;;;15.33;10.53;;;7.40;99.90;;;;;;5012407;28;20307;-69
2024/01/07 00:56:10;;;;;;;16.47;12.13;;;7.40;99.90;;;;;;5020169;28;20389;-69
2024/01/07 00:58:38;;;;;;;19.40;13.90;;;7.40;99.90;;;;;;5016889;28;20200;-69
2024/01/07 01:01:05;;;;;;;17.37;12.17;;;7.40;99.90;;;;;;5019257;28;20195;-69
2024/01/07 01:03:31;;;;;;;20.10;13.23;;;7.40;99.90;;;;;;5013640;28;20536;-69
2024/01/07 01:05:56;;;;;;;21.43;13.77;;;7.40;99.90;;;;;;5015256;28;20968;-69
2024/01/07 01:08:23;;;;;;;18.37;13.67;;;7.40;99.90;;;;;;5013171;28;20247;-69
2024/01/07 01:10:48;;;;;;;17.47;12.47;;;7.40;99.90;;;;;;5010646;28;20611;-69
2024/01/07 01:13:14;;;;;;;20.23;14.27;;;7.40;99.90;;;;;;5017032;28;20447;-69
2024/01/07 01:15:39;;;;;;;20.27;13.90;;;7.40;99.90;;;;;;5021929;28;20237;-68
2024/01/07 01:18:05;;;;;;;20.90;13.80;;;7.40;99.90;;;;;;5013577;28;20216;-68
2024/01/07 01:20:31;;;;;;;18.87;13.00;;;7.40;99.90;;;;;;5016715;28;20185;-68
2024/01/07 01:22:56;;;;;;;17.57;13.37;;;7.40;99.90;;;;;;5015892;28;20173;-69
2024/01/07 01:25:22;;;;;;;19.47;13.17;;;7.40;99.90;;;;;;5013262;28;20190;-69
2024/01/07 01:27:47;;;;;;;20.60;14.33;;;7.40;99.90;;;;;;5015504;28;20181;-69
2024/01/07 01:30:13;;;;;;;23.57;15.10;;;7.40;99.90;;;;;;5020040;28;20181;-69
2024/01/07 01:32:39;;;;;;;18.80;13.30;;;7.40;99.90;;;;;;5022771;28;20254;-69
2024/01/07 01:35:06;;;;;;;22.90;12.70;;;7.40;99.90;;;;;;5014390;28;20269;-68
2024/01/07 01:37:32;;;;;;;16.13;12.77;;;7.40;99.90;;;;;;5017692;28;21071;-69
2024/01/07 01:39:58;;;;;;;17.90;13.27;;;7.40;99.90;;;;;;5015903;28;20447;-68
2024/01/07 01:42:24;;;;;;;19.13;14.20;;;7.40;99.90;;;;;;5018527;28;20458;-69
2024/01/07 01:44:50;;;;;;;22.77;14.17;;;7.40;99.90;;;;;;5021053;28;20950;-69
2024/01/07 01:47:16;;;;;;;22.97;15.00;;;7.40;99.90;;;;;;5024158;28;20208;-69
2024/01/07 01:49:42;;;;;;;20.27;13.80;;;7.40;99.90;;;;;;5021423;28;20185;-69
2024/01/07 01:52:09;;;;;;;19.73;13.70;;;7.40;99.90;;;;;;5015890;28;20893;-69
2024/01/07 01:54:35;;;;;;;23.37;13.77;;;7.40;99.90;;;;;;5021942;28;20219;-69
2024/01/07 01:57:00;;;;;;;18.80;14.07;;;7.40;99.90;;;;;;5020323;28;20820;-69
2024/01/07 01:59:28;;;;;;;19.10;13.23;;;7.40;99.90;;;;;;5017698;28;20432;-68
2024/01/07 02:01:55;;;;;;;20.13;13.40;;;7.40;99.90;;;;;;5017291;28;20539;-68
2024/01/07 02:04:20;;;;;;;21.17;13.97;;;7.40;99.90;;;;;;5012398;28;20534;-68
2024/01/07 02:06:46;;;;;;;20.33;13.60;;;7.30;99.90;;;;;;5022301;28;20419;-68
2024/01/07 02:09:11;;;;;;;21.37;13.77;;;7.30;99.90;;;;;;5024787;28;20185;-68
2024/01/07 02:11:37;;;;;;;22.30;14.47;;;7.30;99.90;;;;;;5025333;28;20261;-68
2024/01/07 02:14:02;;;;;;;19.93;12.77;;;7.30;99.90;;;;;;5022817;28;20209;-68
2024/01/07 02:16:28;;;;;;;20.63;14.10;;;7.30;99.90;;;;;;5022302;28;20180;-68
2024/01/07 02:18:54;;;;;;;20.10;12.93;;;7.30;99.90;;;;;;5023540;28;20255;-68
2024/01/07 02:21:19;;;;;;;21.80;14.53;;;7.30;99.90;;;;;;5022658;28;20196;-68
2024/01/07 02:23:45;;;;;;;19.07;13.27;;;7.30;99.90;;;;;;5030141;28;20287;-68
2024/01/07 02:26:10;;;;;;;19.30;12.57;;;7.30;99.90;;;;;;5018972;28;20200;-68
2024/01/07 02:28:36;;;;;;;21.40;13.43;;;7.30;99.90;;;;;;5023107;28;20211;-68
2024/01/07 02:31:01;;;;;;;17.40;11.90;;;7.30;99.90;;;;;;5016141;28;20289;-68
2024/01/07 02:33:28;;;;;;;20.77;12.60;;;7.40;99.90;;;;;;5021284;28;20239;-69
2024/01/07 02:35:53;;;;;;;20.40;13.77;;;7.30;99.90;;;;;;5017403;28;20208;-68
2024/01/07 02:38:19;;;;;;;19.70;11.80;;;7.20;99.90;;;;;;5017141;28;20495;-68
2024/01/07 02:40:44;;;;;;;18.83;12.00;;;7.20;99.90;;;;;;5016669;28;20177;-68
2024/01/07 02:43:10;;;;;;;16.53;11.30;;;7.10;99.90;;;;;;5016100;28;20226;-68
2024/01/07 02:45:35;;;;;;;17.30;11.20;;;7.10;99.90;;;;;;5022249;28;20212;-68
2024/01/07 02:48:01;;;;;;;17.90;11.70;;;7.10;99.90;;;;;;5013747;28;20242;-68
2024/01/07 02:50:26;;;;;;;20.33;12.80;;;7.20;99.90;;;;;;5017347;28;20628;-68
2024/01/07 02:52:52;;;;;;;23.27;12.07;;;7.10;99.90;;;;;;5024141;28;20617;-68
2024/01/07 02:55:18;;;;;;;16.83;11.40;;;7.10;99.90;;;;;;5023812;28;20545;-68
2024/01/07 02:57:44;;;;;;;15.77;10.93;;;7.10;99.90;;;;;;5021506;28;20969;-68
2024/01/07 03:00:10;;;;;;;25.87;12.60;;;7.10;99.90;;;;;;5018406;28;20428;-68
2024/01/07 03:02:36;;;;;;;17.77;12.17;;;7.10;99.90;;;;;;5019194;28;20587;-69
2024/01/07 03:05:02;;;;;;;20.37;12.40;;;7.10;99.90;;;;;;5014060;28;20452;-68
2024/01/07 03:07:27;;;;;;;18.83;12.30;;;7.20;99.90;;;;;;5023318;28;21207;-68
2024/01/07 03:09:53;;;;;;;17.87;11.13;;;7.10;99.90;;;;;;5013352;28;20793;-68
2024/01/07 03:12:18;;;;;;;20.53;12.20;;;7.10;99.90;;;;;;5016789;28;20658;-68
2024/01/07 03:14:44;;;;;;;17.03;10.90;;;7.10;99.90;;;;;;5018740;28;20207;-69
2024/01/07 03:17:10;;;;;;;15.13;9.63;;;7.10;99.90;;;;;;5014452;28;20478;-68
2024/01/07 03:19:38;;;;;;;17.50;11.20;;;7.10;99.90;;;;;;5022306;28;20347;-68
2024/01/07 03:22:03;;;;;;;18.57;11.20;;;7.10;99.90;;;;;;5014017;28;20532;-68
2024/01/07 03:24:29;;;;;;;17.10;9.83;;;7.10;99.90;;;;;;5018578;28;20577;-68
2024/01/07 03:26:55;;;;;;;20.37;10.10;;;7.00;99.90;;;;;;5015770;28;20431;-68
2024/01/07 03:29:20;;;;;;;15.30;8.33;;;7.00;99.90;;;;;;5022834;28;20276;-68
2024/01/07 03:31:46;;;;;;;14.43;9.70;;;7.10;99.90;;;;;;5015399;28;20181;-68
2024/01/07 03:34:11;;;;;;;14.40;8.80;;;7.10;99.90;;;;;;5009898;28;20188;-68
2024/01/07 03:36:37;;;;;;;17.40;10.00;;;7.10;99.90;;;;;;5016289;28;20311;-68
2024/01/07 03:39:02;;;;;;;15.77;10.40;;;7.10;99.90;;;;;;5013207;28;20193;-68
2024/01/07 03:41:28;;;;;;;17.63;10.10;;;7.10;99.90;;;;;;5017673;28;20182;-68
2024/01/07 03:43:53;;;;;;;14.17;9.50;;;7.10;99.90;;;;;;5016940;28;20203;-69
2024/01/07 03:46:19;;;;;;;15.50;8.93;;;7.10;99.90;;;;;;5019962;28;20501;-69
2024/01/07 03:48:45;;;;;;;14.20;9.00;;;7.00;99.90;;;;;;5023465;28;20207;-69
2024/01/07 03:51:10;;;;;;;17.00;9.77;;;7.00;99.90;;;;;;5020015;28;20188;-68
2024/01/07 03:53:36;;;;;;;16.43;10.17;;;7.00;99.90;;;;;;5031019;28;20199;-68
2024/01/07 03:56:02;;;;;;;16.40;9.83;;;7.00;99.90;;;;;;5019923;28;20199;-68
2024/01/07 03:58:27;;;;;;;17.93;8.90;;;7.10;99.90;;;;;;5022407;28;20294;-68
2024/01/07 04:00:53;;;;;;;14.40;9.47;;;7.00;99.90;;;;;;5022045;28;20595;-68
2024/01/07 04:03:19;;;;;;;16.70;9.03;;;7.00;99.90;;;;;;5021438;28;20674;-68
2024/01/07 04:05:45;;;;;;;13.90;9.20;;;7.00;99.90;;;;;;5019324;28;20205;-68
2024/01/07 04:08:11;;;;;;;13.87;9.33;;;7.00;99.90;;;;;;5015525;28;20541;-68
2024/01/07 04:10:37;;;;;;;15.50;9.40;;;7.00;99.90;;;;;;5013716;28;20435;-68
2024/01/07 04:13:03;;;;;;;12.53;8.63;;;7.10;99.90;;;;;;5019081;28;20447;-68
2024/01/07 04:15:29;;;;;;;13.47;8.43;;;7.10;99.90;;;;;;5020904;28;20439;-68
2024/01/07 04:17:55;;;;;;;13.50;8.73;;;7.10;99.90;;;;;;5016911;28;20502;-68
2024/01/07 04:20:20;;;;;;;13.27;8.63;;;7.10;99.90;;;;;;5017834;28;20422;-68
2024/01/07 04:22:46;;;;;;;11.97;8.90;;;7.10;99.90;;;;;;5020040;28;20270;-68
2024/01/07 04:25:11;;;;;;;13.03;8.60;;;7.10;99.90;;;;;;5013870;28;20192;-68
2024/01/07 04:27:38;;;;;;;12.70;8.67;;;7.10;99.90;;;;;;5013628;28;20188;-68
2024/01/07 04:30:04;;;;;;;12.90;8.63;;;7.10;99.90;;;;;;5024211;28;20680;-68
2024/01/07 04:32:30;;;;;;;12.83;9.03;;;7.10;99.90;;;;;;5016590;28;20928;-68
2024/01/07 04:34:57;;;;;;;14.67;9.10;;;7.10;99.90;;;;;;5016787;28;20439;-69
2024/01/07 04:37:23;;;;;;;14.33;9.90;;;7.00;99.90;;;;;;5012614;28;20767;-69
2024/01/07 04:39:49;;;;;;;14.97;8.80;;;7.00;99.90;;;;;;5011803;28;20499;-68
2024/01/07 04:42:15;;;;;;;13.53;9.43;;;7.00;99.90;;;;;;5017644;28;20866;-68
2024/01/07 04:44:41;;;;;;;11.63;8.40;;;7.10;99.90;;;;;;5016241;28;20815;-68
2024/01/07 04:47:26;;;;;;;17.03;10.10;;;7.10;99.90;;;;;;5022773;28;20476;-68
2024/01/07 04:49:52;;;;;;;13.70;9.17;;;7.10;99.90;;;;;;5022320;28;20230;-68
2024/01/07 04:52:17;;;;;;;15.50;8.20;;;7.10;99.90;;;;;;5017694;28;20455;-68
2024/01/07 04:54:43;;;;;;;15.10;9.60;;;7.10;99.90;;;;;;5021072;28;20212;-68
2024/01/07 04:57:08;;;;;;;14.03;9.00;;;7.10;99.90;;;;;;5025389;28;20212;-68
2024/01/07 04:59:34;;;;;;;13.97;9.40;;;7.00;99.90;;;;;;5020810;28;20191;-68
2024/01/07 05:02:00;;;;;;;13.17;9.73;;;7.00;99.90;;;;;;5025041;28;20185;-68
2024/01/07 05:04:25;;;;;;;17.70;10.40;;;7.00;99.90;;;;;;5023743;28;20283;-68
2024/01/07 05:06:51;;;;;;;13.43;10.10;;;7.00;99.90;;;;;;5021698;28;20723;-68
2024/01/07 05:09:17;;;;;;;14.50;9.47;;;7.00;99.90;;;;;;5019136;28;20248;-68
2024/01/07 05:11:43;;;;;;;15.13;10.43;;;7.10;99.90;;;;;;5015076;28;20256;-69
2024/01/07 05:14:08;;;;;;;14.37;9.93;;;7.00;99.90;;;;;;5023879;28;20945;-69
2024/01/07 05:16:34;;;;;;;14.50;10.10;;;7.00;99.90;;;;;;5020216;28;20227;-69
2024/01/07 05:18:59;;;;;;;14.47;9.50;;;7.00;99.90;;;;;;5017757;28;20181;-68
2024/01/07 05:21:25;;;;;;;14.30;10.60;;;7.00;99.90;;;;;;5026298;28;20203;-68
2024/01/07 05:23:50;;;;;;;13.40;9.77;;;7.00;99.90;;;;;;5019255;28;20205;-68
2024/01/07 05:26:16;;;;;;;15.13;10.00;;;6.90;99.90;;;;;;5027095;28;20570;-68
2024/01/07 05:28:42;;;;;;;13.40;9.50;;;6.90;99.90;;;;;;5026360;28;20604;-68
2024/01/07 05:31:19;;;;;;;14.30;10.23;;;6.90;99.90;;;;;;5011180;28;20243;-68
2024/01/07 05:33:45;;;;;;;14.10;9.80;;;7.00;99.90;;;;;;5019485;28;20205;-68
2024/01/07 05:36:14;;;;;;;16.93;9.67;;;7.00;99.90;;;;;;5013067;28;22945;-68
2024/01/07 05:38:42;;;;;;;15.40;10.47;;;7.00;99.90;;;;;;5009320;28;20770;-69
2024/01/07 05:41:07;;;;;;;16.07;10.63;;;7.00;99.90;;;;;;5014397;28;20435;-69
2024/01/07 05:43:33;;;;;;;14.67;10.87;;;7.10;99.90;;;;;;5014009;28;20956;-68
2024/01/07 05:45:58;;;;;;;14.67;10.10;;;7.00;99.90;;;;;;5022394;28;20195;-68
2024/01/07 05:48:24;;;;;;;15.03;10.90;;;6.90;99.90;;;;;;5014658;28;20185;-68
2024/01/07 05:50:50;;;;;;;17.23;10.43;;;7.00;99.90;;;;;;5015958;28;20204;-69
2024/01/07 05:53:17;;;;;;;15.13;11.10;;;7.00;99.90;;;;;;5016477;28;20199;-68
2024/01/07 05:55:42;;;;;;;16.57;10.70;;;7.00;99.90;;;;;;5013078;28;20424;-68
2024/01/07 05:58:08;;;;;;;13.67;9.00;;;6.90;99.90;;;;;;5014147;28;20972;-68
2024/01/07 06:00:34;;;;;;;13.50;9.70;;;7.00;99.90;;;;;;5018456;28;20189;-68
2024/01/07 06:03:00;;;;;;;14.73;9.80;;;7.00;99.90;;;;;;5014188;28;20208;-68
2024/01/07 06:05:26;;;;;;;15.00;10.47;;;7.00;99.90;;;;;;5019156;28;20648;-68
2024/01/07 06:07:51;;;;;;;13.40;9.87;;;7.00;99.90;;;;;;5015268;28;20431;-68
2024/01/07 06:10:17;;;;;;;14.17;9.10;;;7.00;99.90;;;;;;5020429;28;20181;-68
2024/01/07 06:12:43;;;;;;;14.83;9.87;;;7.00;99.90;;;;;;5021134;28;20177;-68
2024/01/07 06:15:09;;;;;;;16.03;10.77;;;7.00;99.90;;;;;;5016419;28;20229;-68
2024/01/07 06:17:34;;;;;;;14.00;9.87;;;7.00;99.90;;;;;;5017727;28;20573;-68
2024/01/07 06:20:00;;;;;;;15.90;10.63;;;7.00;99.90;;;;;;5018769;28;20434;-69
2024/01/07 06:22:25;;;;;;;13.53;9.93;;;7.00;99.90;;;;;;5025669;28;20705;-68
2024/01/07 06:24:51;;;;;;;14.93;9.80;;;7.00;99.90;;;;;;5024646;28;20263;-68
2024/01/07 06:27:17;;;;;;;12.87;9.47;;;7.00;99.90;;;;;;5021920;28;20193;-68
2024/01/07 06:29:42;;;;;;;14.30;9.77;;;7.10;99.90;;;;;;5019635;28;20197;-69
2024/01/07 06:32:09;;;;;;;14.67;9.87;;;7.00;99.90;;;;;;5017338;28;20185;-68
2024/01/07 06:34:35;;;;;;;12.13;9.03;;;7.00;99.90;;;;;;5017116;28;20619;-68
2024/01/07 06:37:01;;;;;;;14.83;10.03;;;7.00;99.90;;;;;;5015878;28;20512;-67
2024/01/07 06:39:27;;;;;;;13.07;9.07;;;7.10;99.90;;;;;;5019869;28;20492;-67
2024/01/07 06:41:53;;;;;;;13.10;10.13;;;7.10;99.90;;;;;;5013251;28;20182;-67
2024/01/07 06:44:18;;;;;;;13.37;10.07;;;7.10;99.90;;;;;;5015197;28;20215;-69
2024/01/07 06:46:44;;;;;;;13.80;9.43;;;7.10;99.90;;;;;;5015143;28;20447;-69
2024/01/07 06:49:09;;;;;;;18.80;11.23;;;7.10;99.90;;;;;;5017646;28;20189;-69
2024/01/07 06:51:35;;;;;;;15.23;11.40;;;7.10;99.90;;;;;;5014542;28;20619;-68
2024/01/07 06:54:00;;;;;;;14.77;10.40;;;7.10;99.90;;;;;;5012416;28;20282;-68
2024/01/07 06:56:26;;;;;;;15.23;10.23;;;7.10;99.90;;;;;;5015705;28;20178;-68
2024/01/07 06:58:51;;;;;;;12.20;9.53;;;7.10;99.90;;;;;;5019678;28;20191;-68
2024/01/07 07:01:24;;;;;;;11.97;9.27;;;7.10;99.90;;;;;;5027430;28;20200;-68
2024/01/07 07:03:50;;;;;;;13.43;9.17;;;7.10;99.90;;;;;;5024268;28;20210;-68
2024/01/07 07:06:16;;;;;;;16.73;11.37;;;7.10;99.90;;;;;;5014918;28;20432;-68
2024/01/07 07:08:42;;;;;;;17.20;10.90;;;7.10;99.90;;;;;;5014621;28;20439;-68
2024/01/07 07:11:07;;;;;;;18.23;10.90;;;7.10;99.90;;;;;;5017446;28;21019;-68
2024/01/07 07:13:33;;;;;;;15.83;11.43;;;7.10;99.90;;;;;;5022675;28;20209;-67
2024/01/07 07:15:59;;;;;;;13.37;9.80;;;7.10;99.90;;;;;;5016964;28;20273;-67
2024/01/07 07:18:25;;;;;;;17.50;10.10;;;7.10;99.90;;;;;;5014756;28;20327;-67
2024/01/07 07:20:51;;;;;;;16.20;10.90;;;7.10;99.90;;;;;;5015025;28;20839;-68
2024/01/07 07:23:16;;;;;;;14.73;11.13;;;7.00;99.90;;;;;;5023367;28;20753;-68
2024/01/07 07:25:42;;;;;;;19.73;12.10;;;7.00;99.90;;;;;;5012598;28;20551;-68
2024/01/07 07:28:07;;;;;;;13.30;10.67;;;7.00;99.90;;;;;;5015491;28;20667;-68
2024/01/07 07:30:33;;;;;;;18.17;12.33;;;7.10;99.90;;;;;;5013361;28;20555;-68
2024/01/07 07:32:59;;;;;;;18.53;10.37;;;7.10;99.90;;;;;;5012194;28;20663;-67
2024/01/07 07:35:24;;;;;;;16.70;11.00;;;7.10;99.90;;;;;;5018320;28;20933;-67
2024/01/07 07:37:50;;;;;;;17.00;10.30;;;7.10;99.90;;;;;;5014363;28;20212;-67
2024/01/07 07:40:15;;;;;;;15.80;10.37;;;7.00;99.90;;;;;;5012657;28;20271;-68
2024/01/07 07:42:41;;;;;;;16.10;10.83;;;7.10;99.90;;;;;;5008970;28;20192;-68
2024/01/07 07:45:07;;;;;;;17.67;11.43;;;7.10;99.90;;;;;;5015178;28;20635;-68
2024/01/07 07:47:33;;;;;;;16.80;10.07;;;7.10;99.90;;;;;;5009300;28;20458;-68
2024/01/07 07:49:58;;;;;;;13.73;9.77;;;7.10;99.90;;;;;;5018265;28;20937;-68
2024/01/07 07:52:25;;;;;;;15.60;9.73;;;7.10;99.90;;;;;;5018930;28;20184;-68
2024/01/07 07:54:54;;;;;;;17.87;10.10;;;7.10;99.90;;;;;;5021667;28;20208;-68
2024/01/07 07:57:25;;;;;;;16.10;10.40;;;7.10;99.90;;;;;;5019378;28;20495;-68
2024/01/07 07:59:50;;;;;;;17.40;11.30;;;7.10;99.90;;;;;;5022916;28;20430;-68
2024/01/07 08:02:16;;;;;;;17.97;10.63;;;7.10;99.90;;;;;;5015633;28;20427;-70
2024/01/07 08:04:43;;;;;;;19.70;9.67;;;7.10;99.90;;;;;;5016301;28;20207;-69
2024/01/07 08:07:09;;;;;;;20.50;9.50;;;7.10;99.90;;;;;;5015112;28;20440;-70
2024/01/07 08:09:38;;;;;;;18.63;10.80;;;7.10;99.90;;;;;;5015830;28;20941;-68
2024/01/07 08:12:05;;;;;;;16.93;10.77;;;7.20;99.90;;;;;;5015247;28;20474;-68
2024/01/07 08:14:31;;;;;;;15.27;10.10;;;7.20;99.90;;;;;;5013737;28;20463;-68
2024/01/07 08:16:56;;;;;;;16.43;10.63;;;7.20;99.90;;;;;;5011785;28;20473;-69
2024/01/07 08:19:22;;;;;;;14.57;9.67;;;7.20;99.90;;;;;;5011655;28;20949;-68
2024/01/07 08:21:47;;;;;;;15.20;9.80;;;7.20;99.90;;;;;;5022510;28;20226;-68
2024/01/07 08:24:13;;;;;;;15.37;10.30;;;7.10;99.90;;;;;;5016302;28;20235;-69
2024/01/07 08:26:39;;;;;;;17.67;9.47;;;7.10;99.90;;;;;;5022789;28;20674;-69
2024/01/07 08:29:05;;;;;;;15.73;9.87;;;7.20;99.90;;;;;;5021458;28;20206;-69
2024/01/07 08:31:31;;;;;;;18.23;10.10;;;7.10;99.90;;;;;;5017140;28;20188;-69
2024/01/07 08:33:56;;;;;;;15.87;10.07;;;7.20;99.90;;;;;;5021320;28;20435;-70
2024/01/07 08:36:22;;;;;;;18.27;11.20;;;7.20;99.90;;;;;;5018343;28;20421;-69
2024/01/07 08:38:48;;;;;;;17.60;10.03;;;7.20;99.90;;;;;;5017612;28;20611;-69
2024/01/07 08:41:17;;;;;;;16.03;10.30;;;7.20;99.90;;;;;;5007454;28;20443;-69
2024/01/07 08:43:43;;;;;;;16.43;10.60;;;7.20;99.90;;;;;;5021710;28;20269;-68
2024/01/07 08:46:09;;;;;;;16.13;9.73;;;7.20;99.90;;;;;;5016562;28;20415;-69
2024/01/07 08:48:34;;;;;;;15.80;10.60;;;7.20;99.90;;;;;;5012377;28;20918;-70
2024/01/07 08:51:00;;;;;;;15.20;10.77;;;7.30;99.90;;;;;;5016152;28;20217;-69
2024/01/07 08:53:26;;;;;;;17.87;11.07;;;7.30;99.90;;;;;;5019383;28;20228;-69
2024/01/07 08:55:51;;;;;;;16.80;10.90;;;7.30;99.90;;;;;;5009532;28;20268;-69
2024/01/07 08:58:17;;;;;;;16.70;10.20;;;7.30;99.90;;;;;;5016776;28;20216;-69
2024/01/07 09:00:43;;;;;;;17.47;12.23;;;7.30;99.90;;;;;;5020809;28;20195;-69
2024/01/07 09:03:10;;;;;;;15.90;10.73;;;7.30;99.90;;;;;;5012129;28;20193;-69
2024/01/07 09:05:36;;;;;;;16.07;10.93;;;7.40;99.90;;;;;;5014668;28;20423;-69
2024/01/07 09:08:02;;;;;;;16.07;10.50;;;7.40;99.90;;;;;;5016015;28;20448;-67
2024/01/07 09:10:27;;;;;;;18.23;11.37;;;7.40;99.90;;;;;;5012604;28;20472;-68
2024/01/07 09:12:53;;;;;;;19.13;11.53;;;7.40;99.90;;;;;;5018441;28;20663;-68
2024/01/07 09:15:20;;;;;;;17.97;11.73;;;7.40;99.90;;;;;;5019143;28;20215;-68
2024/01/07 09:17:46;;;;;;;20.43;12.60;;;7.40;99.90;;;;;;5012693;28;20204;-68
2024/01/07 09:20:11;;;;;;;17.43;11.67;;;7.50;99.90;;;;;;5015700;28;20463;-68
2024/01/07 09:22:37;;;;;;;20.73;13.77;;;7.50;99.90;;;;;;5015828;28;20455;-68
2024/01/07 09:25:03;;;;;;;17.10;12.60;;;7.50;99.90;;;;;;5012764;28;20372;-68
2024/01/07 09:27:29;;;;;;;17.33;12.20;;;7.50;99.90;;;;;;5016718;28;20181;-67
2024/01/07 09:29:55;;;;;;;18.83;12.87;;;7.50;99.90;;;;;;5010477;28;20501;-68
2024/01/07 09:32:21;;;;;;;18.47;12.33;;;7.50;99.90;;;;;;5017084;28;21009;-68
2024/01/07 09:34:46;;;;;;;19.03;13.23;;;7.50;99.90;;;;;;5012081;28;20699;-68
2024/01/07 09:37:12;;;;;;;24.57;15.23;;;7.60;99.90;;;;;;5014061;28;20219;-67
2024/01/07 09:39:41;;;;;;;27.47;15.50;;;7.60;99.90;;;;;;5013342;28;20637;-68
2024/01/07 09:42:14;;;;;;;24.07;14.27;;;7.60;99.90;;;;;;5015223;28;20592;-68
2024/01/07 09:44:42;;;;;;;19.83;13.20;;;7.60;99.90;;;;;;5018700;28;20492;-68
2024/01/07 09:47:11;;;;;;;18.37;11.73;;;7.60;99.90;;;;;;5012697;28;20557;-69
2024/01/07 09:49:37;;;;;;;19.10;12.83;;;7.60;99.90;;;;;;5015547;28;20411;-68
2024/01/07 09:52:04;;;;;;;16.93;11.90;;;7.60;99.90;;;;;;5020016;28;20422;-68
2024/01/07 09:54:31;;;;;;;18.77;12.57;;;7.60;99.90;;;;;;5022931;28;21265;-68
2024/01/07 09:57:06;;;;;;;20.40;13.87;;;7.60;99.90;;;;;;5016443;28;20505;-68
2024/01/07 09:59:32;;;;;;;18.53;11.83;;;7.60;99.90;;;;;;5015748;28;20421;-69
2024/01/07 10:01:58;;;;;;;22.00;13.00;;;7.60;99.90;;;;;;5020752;28;21014;-68
2024/01/07 10:04:25;;;;;;;20.40;13.17;;;7.60;99.90;;;;;;5020114;28;20463;-68
2024/01/07 10:06:53;;;;;;;19.60;12.57;;;7.70;99.90;;;;;;5020744;28;20255;-68
2024/01/07 10:09:19;;;;;;;19.37;11.87;;;7.70;99.90;;;;;;5019792;28;20420;-68
2024/01/07 10:11:45;;;;;;;18.30;11.07;;;7.70;99.90;;;;;;5016810;28;20646;-68
2024/01/07 10:14:11;;;;;;;17.33;10.97;;;7.70;99.90;;;;;;5013751;28;20439;-68
2024/01/07 10:16:36;;;;;;;18.07;12.43;;;7.80;99.90;;;;;;5017987;28;20560;-68
2024/01/07 10:19:02;;;;;;;14.43;11.53;;;7.80;99.90;;;;;;5012795;28;20819;-68
2024/01/07 10:21:28;;;;;;;15.53;11.00;;;7.90;99.90;;;;;;5015691;28;20227;-68
2024/01/07 10:24:11;;;;;;;17.50;12.40;;;8.00;99.90;;;;;;5017461;28;20543;-68
2024/01/07 10:26:38;;;;;;;13.73;11.00;;;8.10;99.90;;;;;;5014974;28;20181;-68
2024/01/07 10:29:04;;;;;;;16.20;10.87;;;8.10;99.90;;;;;;5016902;28;20497;-68
2024/01/07 10:31:30;;;;;;;14.43;10.10;;;8.20;99.90;;;;;;5014886;28;21258;-68
2024/01/07 10:33:57;;;;;;;13.87;9.20;;;8.20;99.90;;;;;;5011133;28;20478;-68
2024/01/07 10:36:24;;;;;;;17.00;10.23;;;8.20;99.90;;;;;;5018356;28;20489;-68
2024/01/07 10:38:50;;;;;;;14.07;10.20;;;8.20;99.90;;;;;;5008268;28;21193;-68
2024/01/07 10:41:18;;;;;;;13.17;9.40;;;8.30;99.90;;;;;;5009515;28;20826;-68
2024/01/07 10:43:47;;;;;;;14.37;9.07;;;8.30;99.90;;;;;;5019198;28;20588;-68
2024/01/07 10:46:14;;;;;;;11.70;8.67;;;8.20;99.90;;;;;;5014184;28;20488;-68
2024/01/07 10:48:50;;;;;;;13.10;8.50;;;8.20;99.90;;;;;;5011126;28;20541;-68
2024/01/07 10:51:18;;;;;;;8.80;7.10;;;8.30;99.90;;;;;;5012655;28;20485;-68
2024/01/07 10:53:50;;;;;;;9.43;7.47;;;8.30;99.90;;;;;;5017535;28;20447;-68
2024/01/07 10:56:20;;;;;;;11.37;8.10;;;8.20;99.90;;;;;;5014950;28;20435;-68
2024/01/07 10:58:48;;;;;;;9.70;7.27;;;8.20;99.90;;;;;;5022111;28;20550;-68
2024/01/07 11:01:13;;;;;;;9.40;7.90;;;8.20;99.90;;;;;;5019311;28;20636;-68
2024/01/07 11:04:16;;;;;;;10.03;7.97;;;8.10;99.90;;;;;;5019370;28;20431;-68
2024/01/07 11:07:06;;;;;;;11.10;8.80;;;8.00;99.90;;;;;;5017820;28;20435;-68
2024/01/07 11:09:35;;;;;;;11.87;9.00;;;8.00;99.90;;;;;;5012796;28;20785;-68
2024/01/07 11:12:01;;;;;;;13.27;9.83;;;7.90;99.90;;;;;;5020560;28;20411;-69
2024/01/07 11:14:44;;;;;;;10.80;8.77;;;7.90;99.90;;;;;;5020012;28;20529;-68
2024/01/07 11:17:11;;;;;;;12.73;9.00;;;7.90;99.90;;;;;;5015281;28;20498;-68
2024/01/07 11:19:37;;;;;;;11.50;8.17;;;7.90;99.90;;;;;;5011925;28;20404;-68
2024/01/07 11:22:27;;;;;;;11.23;8.40;;;7.90;99.90;;;;;;5015349;28;20603;-68
2024/01/07 11:24:56;;;;;;;10.27;5.73;;;7.90;99.90;;;;;;5011012;28;20497;-69
2024/01/07 11:27:22;;;;;;;7.63;5.73;;;7.80;99.90;;;;;;5017290;28;20447;-68
2024/01/07 11:30:00;;;;;;;7.60;5.77;;;7.80;99.90;;;;;;5014313;28;20565;-69
2024/01/07 11:32:29;;;;;;;7.73;5.60;;;7.70;99.90;;;;;;5014702;28;20431;-67
2024/01/07 11:34:56;;;;;;;6.80;5.60;;;7.70;99.90;;;;;;5011429;28;20861;-69
2024/01/07 11:37:22;;;;;;;7.20;5.27;;;7.70;99.90;;;;;;5017743;28;20872;-69
2024/01/07 11:39:51;;;;;;;7.00;5.03;;;7.70;99.90;;;;;;5015189;28;20415;-68
2024/01/07 11:42:17;;;;;;;7.90;5.00;;;7.60;99.90;;;;;;5014202;28;20505;-70
2024/01/07 11:44:56;;;;;;;6.23;5.03;;;7.60;99.90;;;;;;5019253;28;20443;-69
2024/01/07 11:47:23;;;;;;;7.90;5.70;;;7.60;99.90;;;;;;5015170;28;20516;-69
2024/01/07 11:49:49;;;;;;;6.90;5.10;;;7.60;99.90;;;;;;5011998;28;21104;-68
2024/01/07 11:52:15;;;;;;;7.80;5.03;;;7.60;99.90;;;;;;5014959;28;20422;-68
2024/01/07 11:54:41;;;;;;;6.90;5.47;;;7.60;99.90;;;;;;5016762;28;20451;-68
2024/01/07 11:57:07;;;;;;;6.33;5.03;;;7.60;99.90;;;;;;5012400;28;20650;-68
2024/01/07 11:59:34;;;;;;;7.10;4.93;;;7.60;99.90;;;;;;5010287;28;20416;-68
2024/01/07 12:02:01;;;;;;;6.23;4.87;;;7.70;99.90;;;;;;5017448;28;20598;-68
2024/01/07 12:04:26;;;;;;;7.50;5.60;;;7.70;99.90;;;;;;5011742;28;20447;-68
2024/01/07 12:06:52;;;;;;;6.87;5.03;;;7.80;99.90;;;;;;5019414;28;20453;-68
2024/01/07 12:09:17;;;;;;;8.60;5.40;;;7.70;99.90;;;;;;5010621;28;20189;-69
2024/01/07 12:11:44;;;;;;;7.77;5.80;;;7.70;99.90;;;;;;5016609;28;20276;-69
2024/01/07 12:14:10;;;;;;;6.40;5.30;;;7.70;99.90;;;;;;5014619;28;20213;-68
2024/01/07 12:16:36;;;;;;;6.30;5.00;;;7.80;99.90;;;;;;5015799;28;20427;-69
2024/01/07 12:19:02;;;;;;;9.13;5.57;;;7.70;99.90;;;;;;5019277;28;20528;-67
2024/01/07 12:21:29;;;;;;;8.33;5.27;;;7.70;99.90;;;;;;5018370;28;20891;-66
2024/01/07 12:23:56;;;;;;;7.27;5.30;;;7.70;99.90;;;;;;5009721;28;20439;-67
2024/01/07 12:26:26;;;;;;;8.33;5.40;;;7.70;99.90;;;;;;5016396;28;20443;-68
2024/01/07 12:28:57;;;;;;;8.30;5.57;;;7.70;99.90;;;;;;5011990;28;20428;-67
2024/01/07 12:31:23;;;;;;;6.37;4.77;;;7.70;99.90;;;;;;5012060;28;20570;-67
2024/01/07 12:33:49;;;;;;;6.53;5.23;;;7.70;99.90;;;;;;5014689;28;20483;-68
2024/01/07 12:36:14;;;;;;;6.67;5.43;;;7.70;99.90;;;;;;5012665;28;21252;-68
2024/01/07 12:38:40;;;;;;;8.33;5.43;;;7.70;99.90;;;;;;5011096;28;20228;-68